Time;durP1;ratioP1;P1;durP2;ratioP2;P2;SDS_P1;SDS_P2;PMS_P1;PMS_P2;Temp;Humidity;BMP_temperature;BMP_pressure;BME280_temperature;BME280_humidity;BME280_pressure;Samples;Min_cycle;Max_cycle;Signal;HPM_P1;HPM_P2
2022/08/01 00:00:31;;;;;;;5.40;0.80;;;18.20;99.90;;;;;;5052360;28;20180;-57
2022/08/01 00:02:57;;;;;;;2.72;0.82;;;18.20;99.90;;;;;;5065146;28;20172;-58
2022/08/01 00:05:23;;;;;;;2.33;0.70;;;18.20;99.90;;;;;;5071498;28;20683;-58
2022/08/01 00:07:48;;;;;;;3.38;0.70;;;18.20;99.90;;;;;;5071416;28;20176;-58
2022/08/01 00:10:16;;;;;;;3.72;0.85;;;18.30;99.90;;;;;;5071012;28;20176;-58
2022/08/01 00:12:42;;;;;;;5.10;0.80;;;18.30;99.90;;;;;;5069721;28;20635;-58
2022/08/01 00:15:10;;;;;;;3.50;0.82;;;18.30;99.90;;;;;;5071119;28;20168;-58
2022/08/01 00:17:36;;;;;;;3.10;0.77;;;18.30;99.90;;;;;;5070975;28;20569;-58
2022/08/01 00:20:04;;;;;;;2.33;0.82;;;18.40;99.90;;;;;;5071282;28;20192;-57
2022/08/01 00:22:34;;;;;;;1.52;0.80;;;18.40;99.90;;;;;;5071417;28;20647;-57
2022/08/01 00:25:00;;;;;;;5.82;0.70;;;18.40;99.90;;;;;;5070901;28;20212;-57
2022/08/01 00:27:26;;;;;;;3.30;1.00;;;18.50;99.90;;;;;;5070799;28;20176;-57
2022/08/01 00:29:52;;;;;;;3.30;0.90;;;18.50;99.90;;;;;;5071241;28;20226;-57
2022/08/01 00:32:18;;;;;;;1.05;0.60;;;18.50;99.90;;;;;;5070323;28;20586;-57
2022/08/01 00:34:44;;;;;;;2.53;0.85;;;18.40;99.90;;;;;;5070965;28;20221;-57
2022/08/01 00:37:10;;;;;;;3.80;0.65;;;18.50;99.90;;;;;;5062742;28;20646;-71
2022/08/01 00:39:35;;;;;;;2.88;0.90;;;18.60;99.90;;;;;;5070830;28;20615;-69
2022/08/01 00:42:09;;;;;;;3.30;0.70;;;18.60;99.90;;;;;;5069883;28;20268;-66
2022/08/01 00:44:35;;;;;;;3.40;0.70;;;18.60;99.90;;;;;;5069382;28;20201;-66
2022/08/01 00:47:01;;;;;;;4.10;0.63;;;18.60;99.90;;;;;;5071000;28;20524;-66
2022/08/01 00:49:27;;;;;;;3.28;0.88;;;18.60;99.90;;;;;;5071003;28;20643;-66
2022/08/01 00:51:54;;;;;;;4.03;1.02;;;18.60;99.90;;;;;;5071048;28;20168;-66
2022/08/01 00:54:20;;;;;;;3.22;0.73;;;18.50;99.90;;;;;;5069244;28;20206;-66
2022/08/01 00:56:47;;;;;;;3.50;0.80;;;18.50;99.90;;;;;;5069164;28;20215;-66
2022/08/01 00:59:16;;;;;;;2.70;0.90;;;18.40;99.90;;;;;;5069155;28;20533;-67
2022/08/01 01:01:42;;;;;;;2.25;0.80;;;18.50;99.90;;;;;;5056675;28;20181;-66
2022/08/01 01:04:08;;;;;;;1.52;0.65;;;18.40;99.90;;;;;;5067233;28;20173;-66
2022/08/01 01:06:57;;;;;;;4.10;0.60;;;18.40;99.90;;;;;;5063015;28;20186;-66
2022/08/01 01:09:35;;;;;;;1.83;0.75;;;18.40;99.90;;;;;;5038851;28;20177;-66
2022/08/01 01:12:00;;;;;;;1.45;0.68;;;18.30;99.90;;;;;;5046956;28;20180;-66
2022/08/01 01:15:07;;;;;;;3.90;0.80;;;18.30;99.90;;;;;;5051765;28;20665;-66
2022/08/01 01:17:41;;;;;;;2.63;0.70;;;18.20;99.90;;;;;;5074538;28;20234;-67
2022/08/01 01:20:11;;;;;;;3.42;0.88;;;18.20;99.90;;;;;;5074757;28;20176;-67
2022/08/01 01:22:52;;;;;;;3.92;0.73;;;18.10;99.90;;;;;;5074350;28;20647;-66
2022/08/01 01:25:36;;;;;;;5.35;0.82;;;18.10;99.90;;;;;;5074456;28;20264;-66
2022/08/01 01:28:08;;;;;;;3.55;0.77;;;18.10;99.90;;;;;;5074376;28;20185;-66
2022/08/01 01:30:37;;;;;;;3.17;0.90;;;18.00;99.90;;;;;;5056537;28;20180;-66
2022/08/01 01:33:05;;;;;;;3.83;0.88;;;18.10;99.90;;;;;;5070970;28;20181;-66
2022/08/01 01:35:37;;;;;;;4.35;0.75;;;18.00;99.90;;;;;;5054222;28;20256;-66
2022/08/01 01:38:21;;;;;;;3.65;0.70;;;18.00;99.90;;;;;;5065540;28;20635;-66
2022/08/01 01:40:48;;;;;;;2.03;0.50;;;18.00;99.90;;;;;;5072464;28;20176;-65
2022/08/01 01:43:16;;;;;;;1.33;0.60;;;18.00;99.90;;;;;;5074186;28;20172;-65
2022/08/01 01:45:44;;;;;;;1.42;0.68;;;17.90;99.90;;;;;;5072429;28;20212;-65
2022/08/01 01:48:12;;;;;;;2.30;0.73;;;17.80;99.90;;;;;;5073847;28;20179;-65
2022/08/01 01:50:39;;;;;;;2.97;0.75;;;17.90;99.90;;;;;;5072245;28;20168;-64
2022/08/01 01:53:06;;;;;;;2.05;0.50;;;17.80;99.90;;;;;;5073911;28;20172;-66
2022/08/01 01:55:34;;;;;;;2.13;0.60;;;17.70;99.90;;;;;;5073786;28;20202;-65
2022/08/01 01:58:01;;;;;;;3.15;0.70;;;17.70;99.90;;;;;;5073362;28;20182;-66
2022/08/01 02:00:27;;;;;;;2.15;0.73;;;17.70;99.90;;;;;;5054621;28;20208;-66
2022/08/01 02:02:56;;;;;;;2.88;0.90;;;17.70;99.90;;;;;;5062526;28;20341;-67
2022/08/01 02:05:24;;;;;;;3.10;0.70;;;17.70;99.90;;;;;;5060401;28;20209;-68
2022/08/01 02:07:52;;;;;;;7.00;1.00;;;17.60;99.90;;;;;;5053593;28;20177;-68
2022/08/01 02:10:19;;;;;;;0.85;0.73;;;17.70;99.90;;;;;;5053984;28;20177;-68
2022/08/01 02:12:48;;;;;;;2.67;0.60;;;17.60;99.90;;;;;;5054553;28;20184;-68
2022/08/01 02:15:15;;;;;;;2.03;0.70;;;17.70;99.90;;;;;;5056930;28;20188;-70
2022/08/01 02:17:46;;;;;;;2.60;1.10;;;17.70;99.90;;;;;;5056313;28;20666;-67
2022/08/01 02:20:13;;;;;;;2.95;0.80;;;17.70;99.90;;;;;;5053451;28;20177;-68
2022/08/01 02:22:52;;;;;;;3.63;0.70;;;17.70;99.90;;;;;;5053526;28;20173;-67
2022/08/01 02:25:25;;;;;;;5.65;0.93;;;17.70;99.90;;;;;;5053419;28;20211;-67
2022/08/01 02:28:07;;;;;;;2.03;0.70;;;17.60;99.90;;;;;;5053492;28;20169;-71
2022/08/01 02:30:35;;;;;;;4.18;0.82;;;17.70;99.90;;;;;;5053388;28;20181;-69
2022/08/01 02:33:23;;;;;;;1.30;0.60;;;17.70;99.90;;;;;;5053296;28;20214;-68
2022/08/01 02:35:53;;;;;;;3.13;0.82;;;17.70;99.90;;;;;;5053062;28;20212;-67
2022/08/01 02:38:24;;;;;;;1.25;0.68;;;17.60;99.90;;;;;;5053149;28;20181;-67
2022/08/01 02:40:52;;;;;;;5.63;1.05;;;17.60;99.90;;;;;;5053059;28;20173;-67
2022/08/01 02:43:22;;;;;;;3.03;0.80;;;17.60;99.90;;;;;;5053265;28;20268;-68
2022/08/01 02:45:55;;;;;;;3.30;0.90;;;17.60;99.90;;;;;;5052946;28;20205;-67
2022/08/01 02:48:25;;;;;;;7.00;1.08;;;17.60;99.90;;;;;;5052825;28;20224;-65
2022/08/01 02:50:54;;;;;;;3.53;1.05;;;17.70;99.90;;;;;;5053309;28;20555;-66
2022/08/01 02:53:23;;;;;;;1.35;0.80;;;17.60;99.90;;;;;;5052769;28;20192;-65
2022/08/01 02:55:51;;;;;;;4.97;0.80;;;17.60;99.90;;;;;;5052674;28;20176;-66
2022/08/01 02:58:19;;;;;;;2.22;0.90;;;17.60;99.90;;;;;;5052682;28;20173;-66
2022/08/01 03:00:46;;;;;;;1.83;0.80;;;17.50;99.90;;;;;;5052751;28;20692;-66
2022/08/01 03:03:14;;;;;;;3.95;0.73;;;17.50;99.90;;;;;;5052735;28;20246;-66
2022/08/01 03:05:42;;;;;;;3.67;0.63;;;17.50;99.90;;;;;;5052321;28;20213;-66
2022/08/01 03:08:09;;;;;;;0.90;0.60;;;17.60;99.90;;;;;;5052506;28;20644;-67
2022/08/01 03:10:38;;;;;;;3.58;0.90;;;17.50;99.90;;;;;;5040076;28;20195;-67
2022/08/01 03:13:06;;;;;;;4.32;0.70;;;17.60;99.90;;;;;;5032628;28;20637;-67
2022/08/01 03:15:34;;;;;;;4.05;0.80;;;17.50;99.90;;;;;;5032674;28;20201;-67
2022/08/01 03:18:02;;;;;;;1.60;0.70;;;17.50;99.90;;;;;;5032475;28;20188;-67
2022/08/01 03:20:32;;;;;;;2.97;0.80;;;17.50;99.90;;;;;;5035192;28;20248;-66
2022/08/01 03:23:03;;;;;;;2.30;0.90;;;17.50;99.90;;;;;;5051576;28;20264;-67
2022/08/01 03:25:31;;;;;;;5.85;1.08;;;17.40;99.90;;;;;;5045546;28;20202;-67
2022/08/01 03:28:01;;;;;;;3.67;0.73;;;17.40;99.90;;;;;;5032171;28;20185;-67
2022/08/01 03:30:27;;;;;;;3.75;1.00;;;17.30;99.90;;;;;;5032243;28;20162;-67
2022/08/01 03:32:54;;;;;;;1.92;0.90;;;17.30;99.90;;;;;;5032206;28;20177;-66
2022/08/01 03:35:22;;;;;;;3.25;0.98;;;17.30;99.90;;;;;;5031878;28;20233;-67
2022/08/01 03:37:51;;;;;;;2.85;1.00;;;17.30;99.90;;;;;;5032057;28;20174;-66
2022/08/01 03:40:32;;;;;;;3.67;1.10;;;17.30;99.90;;;;;;5032040;28;20251;-66
2022/08/01 03:43:02;;;;;;;2.22;1.00;;;17.30;99.90;;;;;;5030704;28;20165;-67
2022/08/01 03:45:34;;;;;;;2.22;0.73;;;17.30;99.90;;;;;;5031720;28;20216;-67
2022/08/01 03:48:08;;;;;;;4.57;0.85;;;17.30;99.90;;;;;;5031856;28;20170;-67
2022/08/01 03:50:36;;;;;;;3.97;1.10;;;17.30;99.90;;;;;;5032017;28;20223;-67
2022/08/01 03:53:06;;;;;;;5.50;0.88;;;17.30;99.90;;;;;;5031815;28;20166;-67
2022/08/01 03:55:34;;;;;;;3.17;1.10;;;17.30;99.90;;;;;;5031652;28;20174;-67
2022/08/01 03:58:01;;;;;;;5.60;0.88;;;17.20;99.90;;;;;;5031804;28;20248;-67
2022/08/01 04:00:27;;;;;;;4.22;1.27;;;17.20;99.90;;;;;;5031743;28;20166;-67
2022/08/01 04:02:53;;;;;;;2.13;0.80;;;17.20;99.90;;;;;;5031647;28;20253;-67
2022/08/01 04:05:19;;;;;;;2.05;0.75;;;17.20;99.90;;;;;;5031540;28;20297;-67
2022/08/01 04:07:47;;;;;;;2.28;0.82;;;17.10;99.90;;;;;;5031375;28;20170;-67
2022/08/01 04:10:13;;;;;;;7.38;1.02;;;17.10;99.90;;;;;;5040627;28;20188;-66
2022/08/01 04:12:39;;;;;;;1.00;0.60;;;17.20;99.90;;;;;;5051332;28;20165;-67
2022/08/01 04:15:06;;;;;;;2.78;0.70;;;17.10;99.90;;;;;;5051409;28;20177;-67
2022/08/01 04:17:31;;;;;;;2.63;1.00;;;17.10;99.90;;;;;;5051370;28;20166;-71
2022/08/01 04:19:57;;;;;;;2.95;0.98;;;17.10;99.90;;;;;;5051267;28;20618;-69
2022/08/01 04:22:23;;;;;;;5.22;0.93;;;17.00;99.90;;;;;;5051355;28;20174;-69
2022/08/01 04:24:53;;;;;;;2.47;0.73;;;17.10;99.90;;;;;;5051304;28;20197;-68
2022/08/01 04:27:23;;;;;;;4.38;1.05;;;17.00;99.90;;;;;;5051230;28;20640;-69
2022/08/01 04:29:54;;;;;;;3.03;0.82;;;17.00;99.90;;;;;;5051155;28;20175;-69
2022/08/01 04:32:21;;;;;;;5.57;1.10;;;17.00;99.90;;;;;;5050244;28;20196;-70
2022/08/01 04:34:49;;;;;;;7.07;1.10;;;17.00;99.90;;;;;;5051042;28;20221;-70
2022/08/01 04:37:16;;;;;;;3.65;0.70;;;17.00;99.90;;;;;;5051205;28;20176;-69
2022/08/01 04:39:44;;;;;;;4.00;0.73;;;17.00;99.90;;;;;;5051268;28;20217;-69
2022/08/01 04:42:10;;;;;;;3.33;0.90;;;17.00;99.90;;;;;;5050913;28;20656;-71
2022/08/01 04:44:37;;;;;;;2.30;1.10;;;17.00;99.90;;;;;;5051072;28;20297;-71
2022/08/01 04:47:04;;;;;;;1.95;0.80;;;17.00;99.90;;;;;;5050954;28;20184;-71
2022/08/01 04:49:34;;;;;;;3.70;0.70;;;17.00;99.90;;;;;;5051023;28;20180;-71
2022/08/01 04:52:00;;;;;;;4.30;0.98;;;17.00;99.90;;;;;;5050892;28;20165;-72
2022/08/01 04:54:27;;;;;;;2.03;0.70;;;17.00;99.90;;;;;;5050741;28;20636;-71
2022/08/01 04:56:59;;;;;;;4.32;0.98;;;17.00;99.90;;;;;;5051095;28;20176;-60
2022/08/01 04:59:41;;;;;;;8.15;0.88;;;17.00;99.90;;;;;;5050744;28;20173;-58
2022/08/01 05:02:14;;;;;;;2.55;0.80;;;17.00;99.90;;;;;;5050863;28;20165;-57
2022/08/01 05:04:42;;;;;;;4.15;0.90;;;17.00;99.90;;;;;;5050632;28;20228;-57
2022/08/01 05:07:09;;;;;;;7.55;1.20;;;17.00;99.90;;;;;;5050701;28;20248;-58
2022/08/01 05:09:38;;;;;;;2.53;0.82;;;16.90;99.90;;;;;;5046606;28;20212;-57
2022/08/01 05:12:05;;;;;;;3.78;1.10;;;16.90;99.90;;;;;;5029468;28;20633;-57
2022/08/01 05:14:32;;;;;;;3.20;0.88;;;17.00;99.90;;;;;;5030896;28;20357;-57
2022/08/01 05:16:59;;;;;;;3.05;1.08;;;17.00;99.90;;;;;;5030669;28;20189;-57
2022/08/01 05:19:26;;;;;;;3.45;0.90;;;17.00;99.90;;;;;;5030826;28;20189;-57
2022/08/01 05:21:52;;;;;;;3.38;0.98;;;16.90;99.90;;;;;;5030800;28;20173;-57
2022/08/01 05:24:18;;;;;;;5.47;0.98;;;16.90;99.90;;;;;;5030579;28;20174;-57
2022/08/01 05:26:43;;;;;;;2.78;0.80;;;16.90;99.90;;;;;;5030540;28;20656;-57
2022/08/01 05:29:09;;;;;;;1.85;0.85;;;16.90;99.90;;;;;;5030542;28;20174;-57
2022/08/01 05:31:35;;;;;;;1.52;0.80;;;16.90;99.90;;;;;;5036066;28;20188;-57
2022/08/01 05:34:02;;;;;;;5.80;1.00;;;16.90;99.90;;;;;;5050512;28;20742;-57
2022/08/01 05:36:28;;;;;;;3.88;0.80;;;16.90;99.90;;;;;;5050367;28;20181;-57
2022/08/01 05:38:54;;;;;;;2.08;0.80;;;16.90;99.90;;;;;;5050421;28;20252;-58
2022/08/01 05:41:20;;;;;;;2.60;1.00;;;16.90;99.90;;;;;;5050482;28;20216;-57
2022/08/01 05:43:46;;;;;;;4.43;0.90;;;17.00;99.90;;;;;;5050409;28;20208;-57
2022/08/01 05:46:12;;;;;;;5.97;1.40;;;17.00;99.90;;;;;;5050201;28;20204;-57
2022/08/01 05:48:38;;;;;;;6.60;1.15;;;17.10;99.90;;;;;;5050470;28;20671;-57
2022/08/01 05:51:03;;;;;;;7.65;1.27;;;17.10;99.90;;;;;;5048943;28;20547;-57
2022/08/01 05:53:29;;;;;;;5.38;1.02;;;17.10;99.90;;;;;;5050536;28;20182;-57
2022/08/01 05:55:55;;;;;;;4.90;0.98;;;17.10;99.90;;;;;;5053932;28;20663;-57
2022/08/01 05:58:22;;;;;;;3.00;0.98;;;17.20;99.90;;;;;;5053894;28;20253;-57
2022/08/01 06:00:47;;;;;;;3.33;1.15;;;17.20;99.90;;;;;;5053780;28;20174;-57
2022/08/01 06:03:14;;;;;;;4.70;1.08;;;17.20;99.90;;;;;;5053764;28;20169;-57
2022/08/01 06:05:40;;;;;;;3.35;0.88;;;17.30;99.90;;;;;;5053797;28;20201;-57
2022/08/01 06:08:06;;;;;;;8.30;1.25;;;17.30;99.90;;;;;;5053832;28;20180;-57
2022/08/01 06:10:31;;;;;;;5.07;0.82;;;17.30;99.90;;;;;;5053512;28;20181;-57
2022/08/01 06:12:57;;;;;;;4.05;0.93;;;17.30;99.90;;;;;;5053639;28;20670;-58
2022/08/01 06:15:23;;;;;;;4.13;0.93;;;17.30;99.90;;;;;;5053442;28;20667;-57
2022/08/01 06:17:49;;;;;;;4.40;1.00;;;17.40;99.90;;;;;;5053663;28;20209;-57
2022/08/01 06:20:15;;;;;;;6.90;1.10;;;17.40;99.90;;;;;;5053484;28;20184;-57
2022/08/01 06:22:40;;;;;;;4.57;1.17;;;17.50;99.90;;;;;;5053416;28;20157;-57
2022/08/01 06:25:07;;;;;;;5.97;1.00;;;17.60;99.90;;;;;;5053408;28;20212;-57
2022/08/01 06:27:36;;;;;;;5.22;1.10;;;17.60;99.90;;;;;;5053168;28;20226;-57
2022/08/01 06:30:02;;;;;;;2.70;1.00;;;17.70;99.90;;;;;;5033256;28;20173;-58
2022/08/01 06:32:29;;;;;;;4.53;1.20;;;17.70;99.90;;;;;;5051665;28;20176;-58
2022/08/01 06:34:55;;;;;;;6.75;1.10;;;17.70;99.90;;;;;;5052897;28;20220;-58
2022/08/01 06:37:21;;;;;;;4.22;1.13;;;17.60;99.90;;;;;;5053100;28;20177;-57
2022/08/01 06:39:47;;;;;;;6.82;1.17;;;17.70;99.90;;;;;;5053202;28;20831;-58
2022/08/01 06:42:14;;;;;;;5.05;1.27;;;17.70;99.90;;;;;;5052995;28;20173;-58
2022/08/01 06:44:40;;;;;;;4.15;1.23;;;17.70;99.90;;;;;;5052938;28;20217;-57
2022/08/01 06:47:06;;;;;;;8.57;1.13;;;17.80;99.90;;;;;;5052922;28;20283;-57
2022/08/01 06:49:31;;;;;;;4.88;0.82;;;17.90;99.90;;;;;;5053043;28;20166;-57
2022/08/01 06:51:57;;;;;;;6.45;1.20;;;18.00;99.90;;;;;;5052897;28;20170;-57
2022/08/01 06:54:23;;;;;;;8.45;1.30;;;18.10;99.90;;;;;;5052754;28;20572;-58
2022/08/01 06:56:48;;;;;;;3.55;0.95;;;18.20;99.90;;;;;;5052723;28;20180;-57
2022/08/01 06:59:14;;;;;;;6.40;1.52;;;18.40;99.90;;;;;;5052679;28;20169;-57
2022/08/01 07:01:40;;;;;;;9.27;1.38;;;18.50;99.90;;;;;;5053031;28;20192;-57
2022/08/01 07:04:06;;;;;;;4.18;1.20;;;18.70;99.90;;;;;;5052695;28;20176;-61
2022/08/01 07:06:32;;;;;;;8.85;1.08;;;18.70;99.90;;;;;;5051965;28;20216;-72
2022/08/01 07:08:58;;;;;;;6.85;1.40;;;18.80;99.90;;;;;;5051417;28;20199;-72
2022/08/01 07:11:24;;;;;;;4.60;1.00;;;18.80;99.90;;;;;;5033925;28;20217;-75
2022/08/01 07:13:50;;;;;;;13.95;1.42;;;18.90;99.90;;;;;;5032541;28;20185;-72
2022/08/01 07:16:16;;;;;;;7.72;1.25;;;18.80;99.90;;;;;;5032490;28;20173;-74
2022/08/01 07:18:42;;;;;;;7.78;1.25;;;18.70;99.90;;;;;;5032546;28;20174;-72
2022/08/01 07:21:08;;;;;;;8.73;1.10;;;18.60;99.90;;;;;;5032445;28;20181;-74
2022/08/01 07:23:35;;;;;;;8.02;1.30;;;18.60;99.90;;;;;;5032314;28;20542;-71
2022/08/01 07:26:02;;;;;;;8.05;1.25;;;18.70;99.90;;;;;;5032238;28;20268;-70
2022/08/01 07:28:28;;;;;;;7.32;0.93;;;18.60;99.90;;;;;;5032450;28;20189;-74
2022/08/01 07:30:54;;;;;;;6.95;1.10;;;18.70;99.90;;;;;;5032346;28;20170;-70
2022/08/01 07:33:20;;;;;;;9.18;1.20;;;18.70;99.90;;;;;;5035623;28;20177;-76
2022/08/01 07:35:46;;;;;;;9.82;1.45;;;18.60;99.90;;;;;;5046702;28;20556;-69
2022/08/01 07:38:12;;;;;;;4.28;1.00;;;18.70;99.90;;;;;;5051973;28;20168;-70
2022/08/01 07:40:38;;;;;;;4.82;1.10;;;18.50;99.90;;;;;;5051985;28;20258;-69
2022/08/01 07:43:04;;;;;;;3.80;1.17;;;18.60;99.90;;;;;;5051673;28;20652;-70
2022/08/01 07:45:30;;;;;;;7.82;1.05;;;18.60;99.90;;;;;;5051882;28;20569;-70
2022/08/01 07:47:56;;;;;;;6.18;1.30;;;18.80;99.90;;;;;;5051313;28;20200;-70
2022/08/01 07:50:22;;;;;;;4.35;1.02;;;19.10;99.90;;;;;;5052762;28;20520;-72
2022/08/01 07:52:47;;;;;;;3.55;0.80;;;19.40;99.90;;;;;;5051615;28;20170;-73
2022/08/01 07:55:13;;;;;;;10.32;1.30;;;19.60;99.90;;;;;;5051088;28;20644;-68
2022/08/01 07:57:39;;;;;;;9.48;1.30;;;19.70;99.90;;;;;;5051574;28;20267;-71
2022/08/01 08:00:06;;;;;;;5.13;1.27;;;19.80;99.90;;;;;;5051628;28;20169;-71
2022/08/01 08:02:32;;;;;;;6.13;1.30;;;20.00;99.90;;;;;;5055246;28;20202;-71
2022/08/01 08:04:58;;;;;;;7.32;1.20;;;20.10;99.90;;;;;;5051471;28;20264;-71
2022/08/01 08:07:24;;;;;;;7.85;1.20;;;20.00;99.90;;;;;;5051671;28;20169;-76
2022/08/01 08:09:49;;;;;;;6.18;1.10;;;20.00;99.90;;;;;;5051490;28;20650;-71
2022/08/01 08:12:15;;;;;;;6.80;1.10;;;19.90;99.90;;;;;;5059995;28;20222;-77
2022/08/01 08:14:41;;;;;;;4.47;1.17;;;19.80;99.90;;;;;;5051917;28;20745;-77
2022/08/01 08:17:06;;;;;;;6.30;1.10;;;19.70;99.90;;;;;;5050766;28;20204;-79
2022/08/01 08:19:33;;;;;;;8.35;1.30;;;19.80;99.90;;;;;;5070788;28;20539;-79
2022/08/01 08:22:01;;;;;;;7.05;1.23;;;19.90;99.90;;;;;;5047469;28;20318;-77
2022/08/01 08:24:27;;;;;;;5.75;0.98;;;19.90;99.90;;;;;;5051595;28;20201;-77
2022/08/01 08:26:58;;;;;;;6.60;1.38;;;20.10;99.90;;;;;;5051707;28;20243;-78
2022/08/01 08:29:26;;;;;;;7.35;0.98;;;20.10;99.90;;;;;;5051969;28;20428;-80
2022/08/01 08:31:54;;;;;;;2.50;0.80;;;20.40;99.90;;;;;;5051706;28;20181;-80
2022/08/01 08:34:20;;;;;;;10.70;1.40;;;20.60;99.90;;;;;;5051570;28;20220;-75
2022/08/01 08:36:49;;;;;;;5.68;1.27;;;20.80;99.90;;;;;;5051996;28;20673;-71
2022/08/01 08:39:15;;;;;;;8.32;1.15;;;21.80;99.90;;;;;;5051109;28;20242;-73
2022/08/01 08:41:41;;;;;;;10.05;1.08;;;22.90;99.90;;;;;;5051076;28;20200;-73
2022/08/01 08:44:08;;;;;;;6.53;1.10;;;23.80;99.90;;;;;;5054393;28;20205;-71
2022/08/01 08:46:41;;;;;;;9.00;1.45;;;23.50;99.90;;;;;;5070978;28;20207;-73
2022/08/01 08:49:07;;;;;;;2.13;0.93;;;23.90;99.90;;;;;;5070986;28;20237;-73
2022/08/01 08:51:37;;;;;;;4.13;1.02;;;24.80;99.90;;;;;;5069900;28;20247;-74
2022/08/01 08:54:05;;;;;;;2.65;1.02;;;25.70;99.90;;;;;;5069507;28;20179;-74
2022/08/01 08:56:34;;;;;;;3.28;0.85;;;26.30;99.90;;;;;;5071150;28;20176;-74
2022/08/01 08:59:00;;;;;;;4.45;1.00;;;25.50;99.90;;;;;;5070991;28;20233;-75
2022/08/01 09:01:26;;;;;;;5.97;1.10;;;24.90;99.90;;;;;;5070851;28;20219;-74
2022/08/01 09:03:52;;;;;;;6.85;1.30;;;23.60;99.90;;;;;;5062083;28;20177;-74
2022/08/01 09:06:18;;;;;;;8.10;1.20;;;22.70;99.90;;;;;;5050652;28;20204;-76
2022/08/01 09:08:44;;;;;;;4.43;1.00;;;22.80;99.90;;;;;;5050706;28;20176;-73
2022/08/01 09:11:10;;;;;;;6.80;0.90;;;21.90;99.90;;;;;;5051178;28;20675;-74
2022/08/01 09:13:36;;;;;;;5.15;0.90;;;22.60;99.90;;;;;;5050800;28;20713;-73
2022/08/01 09:16:02;;;;;;;3.78;0.80;;;23.20;99.90;;;;;;5050847;28;20173;-73
2022/08/01 09:18:44;;;;;;;4.03;0.80;;;23.90;99.90;;;;;;5050583;28;20179;-73
2022/08/01 09:21:16;;;;;;;6.35;1.00;;;24.00;99.90;;;;;;5051111;28;20180;-74
2022/08/01 09:23:49;;;;;;;6.00;0.80;;;24.50;99.90;;;;;;5050960;28;20185;-74
2022/08/01 09:26:19;;;;;;;2.35;0.98;;;24.80;99.90;;;;;;5050730;28;20241;-74
2022/08/01 09:28:46;;;;;;;5.18;1.20;;;24.70;99.90;;;;;;5052860;28;20616;-74
2022/08/01 09:31:17;;;;;;;4.60;1.35;;;24.70;99.90;;;;;;5054617;28;20177;-74
2022/08/01 09:34:04;;;;;;;2.35;1.00;;;24.40;99.90;;;;;;5054084;28;20187;-74
2022/08/01 09:36:51;;;;;;;5.63;0.90;;;24.20;99.90;;;;;;5053248;28;20177;-74
2022/08/01 09:39:28;;;;;;;1.60;0.85;;;24.70;99.90;;;;;;5042852;28;20178;-75
2022/08/01 09:41:55;;;;;;;8.10;1.10;;;24.80;99.90;;;;;;5059022;28;20180;-75
2022/08/01 09:44:38;;;;;;;3.95;1.10;;;24.70;99.90;;;;;;5063825;28;20173;-75
2022/08/01 09:47:04;;;;;;;8.13;1.02;;;24.20;99.90;;;;;;5061859;28;20173;-73
2022/08/01 09:49:33;;;;;;;6.93;1.05;;;24.50;99.90;;;;;;5054407;28;20244;-73
2022/08/01 09:52:09;;;;;;;2.78;1.02;;;24.60;99.90;;;;;;5059660;28;20255;-74
2022/08/01 09:54:35;;;;;;;2.63;0.90;;;25.20;99.90;;;;;;5073937;28;20343;-73
2022/08/01 09:57:16;;;;;;;1.83;0.82;;;25.20;99.90;;;;;;5074120;28;20256;-74
2022/08/01 09:59:44;;;;;;;3.95;1.08;;;25.60;99.90;;;;;;5072278;28;20310;-75
2022/08/01 10:02:13;;;;;;;3.55;0.93;;;26.10;99.90;;;;;;5055252;28;20263;-75
2022/08/01 10:04:47;;;;;;;3.53;0.70;;;26.70;99.90;;;;;;5053976;28;20265;-76
2022/08/01 10:07:15;;;;;;;4.57;0.80;;;26.50;99.90;;;;;;5053462;28;20177;-75
2022/08/01 10:09:42;;;;;;;7.25;1.40;;;26.50;99.90;;;;;;5046700;28;20675;-76
2022/08/01 10:12:12;;;;;;;4.00;1.00;;;26.20;99.90;;;;;;5034291;28;20717;-76
2022/08/01 10:14:39;;;;;;;3.10;0.90;;;26.10;99.90;;;;;;5033771;28;20186;-75
2022/08/01 10:17:08;;;;;;;4.85;0.90;;;25.90;99.90;;;;;;5033780;28;20166;-75
2022/08/01 10:19:36;;;;;;;6.13;1.05;;;25.50;99.90;;;;;;5034086;28;20174;-76
2022/08/01 10:22:07;;;;;;;2.72;0.90;;;25.50;99.90;;;;;;5034148;28;20208;-76
2022/08/01 10:24:38;;;;;;;2.72;1.10;;;26.10;99.90;;;;;;5034110;28;20189;-74
2022/08/01 10:27:06;;;;;;;5.28;0.85;;;26.00;99.90;;;;;;5034229;28;20235;-76
2022/08/01 10:29:40;;;;;;;2.75;1.00;;;26.50;99.90;;;;;;5034479;28;20178;-75
2022/08/01 10:32:08;;;;;;;2.63;0.90;;;27.00;99.90;;;;;;5033886;28;20272;-76
2022/08/01 10:34:35;;;;;;;5.70;0.93;;;27.30;99.90;;;;;;5034029;28;20287;-76
2022/08/01 10:37:02;;;;;;;1.88;0.93;;;27.70;99.90;;;;;;5037526;28;20162;-75
2022/08/01 10:39:29;;;;;;;4.05;0.90;;;27.70;99.90;;;;;;5037648;28;20181;-76
2022/08/01 10:41:56;;;;;;;3.72;0.80;;;27.80;99.90;;;;;;5034797;28;20181;-75
2022/08/01 10:44:25;;;;;;;4.47;0.82;;;28.20;99.90;;;;;;5034646;28;20194;-76
2022/08/01 10:46:57;;;;;;;1.40;0.80;;;27.60;99.90;;;;;;5034661;28;20204;-76
2022/08/01 10:49:27;;;;;;;3.83;0.90;;;27.50;99.90;;;;;;5034417;28;20174;-76
2022/08/01 10:51:53;;;;;;;3.95;0.90;;;27.40;99.90;;;;;;5034356;28;20174;-75
2022/08/01 10:54:19;;;;;;;2.25;0.90;;;27.50;99.90;;;;;;5033585;28;20198;-76
2022/08/01 10:56:50;;;;;;;4.28;0.98;;;27.70;99.90;;;;;;5033603;28;20637;-75
2022/08/01 10:59:29;;;;;;;2.92;0.95;;;28.80;99.90;;;;;;5033288;28;20251;-76
2022/08/01 11:02:00;;;;;;;4.00;1.30;;;29.00;99.90;;;;;;5032996;28;20169;-75
2022/08/01 11:05:01;;;;;;;2.40;0.85;;;29.50;99.90;;;;;;5032928;28;20649;-76
2022/08/01 11:07:45;;;;;;;4.25;0.95;;;28.80;99.90;;;;;;5031251;28;20228;-76
2022/08/01 11:10:19;;;;;;;3.17;0.77;;;29.80;99.90;;;;;;5033048;28;20178;-76
2022/08/01 11:12:45;;;;;;;2.50;1.00;;;30.00;99.90;;;;;;5033090;28;20594;-76
2022/08/01 11:15:11;;;;;;;2.45;1.08;;;29.60;99.90;;;;;;5032876;28;20201;-76
2022/08/01 11:17:47;;;;;;;5.13;0.80;;;28.70;99.90;;;;;;5032735;28;20209;-75
2022/08/01 11:20:15;;;;;;;7.28;1.00;;;27.60;99.90;;;;;;5032733;28;20169;-75
2022/08/01 11:23:06;;;;;;;6.20;1.10;;;27.70;99.90;;;;;;5032624;28;20580;-76
2022/08/01 11:25:45;;;;;;;4.47;1.10;;;28.60;99.90;;;;;;5024027;28;20213;-76
2022/08/01 11:28:15;;;;;;;2.40;0.90;;;29.20;99.90;;;;;;5032826;28;20181;-75
2022/08/01 11:30:42;;;;;;;9.98;1.08;;;29.70;99.90;;;;;;5032520;28;20231;-76
2022/08/01 11:33:08;;;;;;;3.63;0.88;;;29.80;99.90;;;;;;5032528;28;20173;-75
2022/08/01 11:35:36;;;;;;;3.65;0.80;;;29.40;99.90;;;;;;5065503;28;20645;-75
2022/08/01 11:38:28;;;;;;;5.25;0.90;;;29.70;99.90;;;;;;5072308;28;20249;-76
2022/08/01 11:41:17;;;;;;;6.60;1.30;;;30.80;99.90;;;;;;5062449;28;20265;-77
2022/08/01 11:44:04;;;;;;;8.82;1.17;;;30.20;99.90;;;;;;5038491;28;20227;-74
2022/08/01 11:47:04;;;;;;;9.10;1.17;;;31.30;99.90;;;;;;5032153;28;20225;-74
2022/08/01 11:49:36;;;;;;;6.50;1.05;;;31.60;99.90;;;;;;5043426;28;20173;-75
2022/08/01 11:52:08;;;;;;;12.63;1.50;;;31.60;99.90;;;;;;5051053;28;20289;-76
2022/08/01 11:54:40;;;;;;;2.92;1.08;;;31.70;99.90;;;;;;5051831;28;20165;-75
2022/08/01 11:57:25;;;;;;;5.95;1.30;;;31.90;99.90;;;;;;5051848;28;20173;-76
2022/08/01 11:59:54;;;;;;;3.67;1.10;;;31.70;99.90;;;;;;5051918;28;20176;-75
2022/08/01 12:02:33;;;;;;;5.43;1.27;;;31.70;99.90;;;;;;5034933;28;20177;-76
2022/08/01 12:05:04;;;;;;;9.93;1.33;;;31.60;99.90;;;;;;5038281;28;20192;-76
2022/08/01 12:07:31;;;;;;;6.20;1.20;;;32.20;99.90;;;;;;5062801;28;20177;-76
2022/08/01 12:10:14;;;;;;;4.85;1.45;;;31.50;99.90;;;;;;5051918;28;20172;-76
2022/08/01 12:12:59;;;;;;;4.03;1.02;;;31.60;99.90;;;;;;5050977;28;20175;-76
2022/08/01 12:15:28;;;;;;;7.85;1.17;;;31.60;99.90;;;;;;5051553;28;20226;-76
2022/08/01 12:18:02;;;;;;;4.00;1.20;;;30.50;99.90;;;;;;5050457;28;20183;-75
2022/08/01 12:20:37;;;;;;;4.32;1.27;;;29.90;99.90;;;;;;5051463;28;20172;-76
2022/08/01 12:23:08;;;;;;;12.25;1.13;;;29.90;99.90;;;;;;5051780;28;20172;-76
2022/08/01 12:25:36;;;;;;;6.50;1.25;;;30.80;99.90;;;;;;5051527;28;20330;-76
2022/08/01 12:28:07;;;;;;;5.93;1.20;;;30.80;99.90;;;;;;5051545;28;20171;-75
2022/08/01 12:30:35;;;;;;;5.55;1.00;;;31.10;99.90;;;;;;5051238;28;20291;-75
2022/08/01 12:33:02;;;;;;;7.43;1.20;;;31.10;99.90;;;;;;5051226;28;20180;-74
2022/08/01 12:35:29;;;;;;;3.45;1.08;;;30.60;99.90;;;;;;5055629;28;20260;-76
2022/08/01 12:37:57;;;;;;;2.58;0.85;;;30.20;99.90;;;;;;5062939;28;20183;-74
2022/08/01 12:40:29;;;;;;;3.70;0.90;;;29.80;99.90;;;;;;5051970;28;20191;-74
2022/08/01 12:43:03;;;;;;;1.92;0.70;;;30.20;99.90;;;;;;5050972;28;20264;-74
2022/08/01 12:45:39;;;;;;;3.92;0.95;;;30.90;99.90;;;;;;5051916;28;20199;-74
2022/08/01 12:48:15;;;;;;;2.00;0.85;;;30.40;99.90;;;;;;5054127;28;20164;-73
2022/08/01 12:50:43;;;;;;;2.55;0.85;;;30.40;99.90;;;;;;5052764;28;20207;-74
2022/08/01 12:53:10;;;;;;;4.22;0.90;;;30.20;99.90;;;;;;5062675;28;20166;-72
2022/08/01 12:55:47;;;;;;;3.80;0.90;;;30.60;99.90;;;;;;5050722;28;20751;-73